Terminal Aerodrome Forecast
Issued by NWS Springfield, MO

Home | Current Version | Previous Version | Text Only | Print | Product List | Glossary On
Versions: 1 2 3 4 5 6 7 8 9 10 11 12 13 14 15 16 17
000
FTUS43 KSGF 262332
TAFSGF
TAF
KSGF 262332Z 2700/2724 20007KT P6SM SCT080
     FM270400 20007KT P6SM BKN200 WS020/25035KT
     FM270800 23008KT P6SM VCTS BKN200CB
     FM271400 24007KT P6SM BKN200=

USA.gov is the U.S. government's official web portal to all federal, state and local government web resources and services.